Terminal Aerodrome Forecast
Issued by NWS

Home | Current Version | Previous Version | Text Only | Print | Product List | Glossary On
Versions: 1 2 3 4 5 6 7 8 9 10 11 12 13 14
000
FTUS43 KOAX 312320
TAFBFF
TAF
KBFF 312320Z 0100/0124 12008KT P6SM VCTS BKN100CB
      TEMPO 0100/0104 VRB15G25KT 6SM -TSRA OVC100CB
     FM010600 VRB03KT P6SM SCT100
     FM011800 20008KT P6SM FEW080=

USA.gov is the U.S. government's official web portal to all federal, state and local government web resources and services.